createdAt,value
2023-03-24T00:00:20.549Z,2.33
2023-03-24T00:02:48.662Z,2.10
2023-03-24T00:05:18.704Z,2.20
2023-03-24T00:07:46.750Z,2.30
2023-03-24T00:10:20.593Z,2.10
2023-03-24T00:12:47.253Z,1.80
2023-03-24T00:15:19.090Z,2.25
2023-03-24T00:17:50.590Z,1.92
2023-03-24T00:20:20.057Z,2.20
2023-03-24T00:22:50.927Z,2.13
2023-03-24T00:25:20.304Z,2.20
2023-03-24T00:27:48.938Z,2.03
2023-03-24T00:30:18.503Z,2.10
2023-03-24T00:32:46.392Z,2.13
2023-03-24T00:35:16.495Z,2.17
2023-03-24T00:37:44.715Z,2.17
2023-03-24T00:40:16.377Z,2.42
2023-03-24T00:42:47.760Z,2.70
2023-03-24T00:45:18.762Z,2.08
2023-03-24T00:47:45.865Z,2.47
2023-03-24T00:50:16.017Z,2.15
2023-03-24T00:52:44.220Z,2.28
2023-03-24T00:55:16.029Z,2.03
2023-03-24T00:57:50.717Z,2.10
2023-03-24T01:00:27.233Z,1.92
2023-03-24T01:02:56.127Z,2.20
2023-03-24T01:05:27.959Z,2.35
2023-03-24T01:08:03.719Z,2.22
2023-03-24T01:10:33.369Z,2.00
2023-03-24T01:13:01.433Z,2.75
2023-03-24T01:15:33.951Z,2.25
2023-03-24T01:18:04.176Z,2.17
2023-03-24T01:20:34.225Z,2.30
2023-03-24T01:23:02.544Z,2.22
2023-03-24T01:25:30.728Z,2.60
2023-03-24T01:27:57.344Z,2.22
2023-03-24T01:30:28.261Z,2.47
2023-03-24T01:32:55.800Z,2.20
2023-03-24T01:35:28.479Z,1.80
2023-03-24T01:37:55.903Z,2.28
2023-03-24T01:40:29.003Z,2.22
2023-03-24T01:42:57.993Z,1.95
2023-03-24T01:45:41.039Z,2.60
2023-03-24T01:48:13.503Z,2.20
2023-03-24T01:50:43.042Z,2.67
2023-03-24T01:53:09.778Z,2.13
2023-03-24T01:55:37.857Z,1.92
2023-03-24T01:58:05.201Z,2.05
2023-03-24T02:00:31.860Z,2.00
2023-03-24T02:03:06.702Z,2.30
2023-03-24T02:05:35.805Z,1.83
2023-03-24T02:08:28.239Z,2.10
2023-03-24T02:10:56.362Z,2.17
2023-03-24T02:13:23.791Z,2.40
2023-03-24T02:16:12.843Z,2.00
2023-03-24T02:18:52.760Z,2.08
2023-03-24T02:21:41.122Z,2.42
2023-03-24T02:24:56.317Z,2.45
2023-03-24T02:27:44.009Z,2.20
2023-03-24T02:30:23.900Z,2.30
2023-03-24T02:33:14.062Z,2.30
2023-03-24T02:35:49.669Z,2.80
2023-03-24T02:38:38.470Z,2.05
2023-03-24T02:41:08.025Z,1.90
2023-03-24T02:43:46.762Z,2.28
2023-03-24T02:46:33.810Z,2.15
2023-03-24T02:49:00.991Z,2.00
2023-03-24T02:51:58.473Z,2.05
2023-03-24T02:54:53.045Z,2.30
2023-03-24T02:57:32.551Z,2.40
2023-03-24T03:00:50.301Z,2.05
2023-03-24T03:03:27.988Z,2.40
2023-03-24T03:06:03.024Z,2.33
2023-03-24T03:08:34.014Z,2.38
2023-03-24T03:11:07.672Z,2.45
2023-03-24T03:16:11.788Z,3.05
2023-03-24T03:18:39.354Z,2.92
2023-03-24T03:21:12.419Z,2.90
2023-03-24T03:23:46.175Z,2.38
2023-03-24T03:26:17.906Z,2.45
2023-03-24T03:28:51.866Z,2.38
2023-03-24T03:31:23.902Z,2.58
2023-03-24T03:34:03.984Z,2.70
2023-03-24T03:36:55.241Z,2.67
2023-03-24T03:39:31.241Z,4.03
2023-03-24T03:41:58.198Z,3.50
2023-03-24T03:44:25.535Z,3.33
2023-03-24T03:46:52.702Z,2.78
2023-03-24T03:49:20.577Z,3.05
2023-03-24T03:51:47.055Z,3.70
2023-03-24T03:54:16.368Z,3.30
2023-03-24T03:56:43.561Z,3.67
2023-03-24T03:59:23.444Z,2.92
2023-03-24T04:01:50.038Z,3.17
2023-03-24T04:04:41.238Z,2.90
2023-03-24T04:07:28.609Z,3.25
2023-03-24T04:10:35.322Z,3.05
2023-03-24T04:13:14.602Z,3.20
2023-03-24T04:15:49.961Z,3.10
2023-03-24T04:18:19.388Z,3.08
2023-03-24T04:20:50.215Z,3.47
2023-03-24T04:23:55.549Z,3.08
2023-03-24T04:26:35.778Z,3.20
2023-03-24T04:29:18.902Z,2.97
2023-03-24T04:31:53.885Z,2.80
2023-03-24T04:34:29.439Z,3.60
2023-03-24T04:37:25.220Z,3.10
2023-03-24T04:39:54.041Z,3.17
2023-03-24T04:42:26.031Z,2.95
2023-03-24T04:44:53.227Z,2.90
2023-03-24T04:47:22.956Z,2.97
2023-03-24T04:49:49.508Z,3.25
2023-03-24T04:52:17.873Z,3.30
2023-03-24T04:54:44.521Z,3.45
2023-03-24T04:57:10.974Z,3.00
2023-03-24T04:59:37.483Z,3.00
2023-03-24T05:02:04.277Z,3.28
2023-03-24T05:04:31.911Z,3.17
2023-03-24T05:06:58.338Z,3.30
2023-03-24T05:09:25.474Z,3.45
2023-03-24T05:11:52.390Z,3.53
2023-03-24T05:14:18.962Z,3.42
2023-03-24T05:16:45.731Z,3.30
2023-03-24T05:19:17.236Z,3.30
2023-03-24T05:21:44.409Z,3.50
2023-03-24T05:24:12.344Z,3.38
2023-03-24T05:26:38.837Z,3.38
2023-03-24T05:29:05.344Z,3.60
2023-03-24T05:31:31.793Z,3.25
2023-03-24T05:33:58.300Z,3.40
2023-03-24T05:36:24.896Z,3.63
2023-03-24T05:38:51.445Z,3.45
2023-03-24T05:41:17.854Z,3.85
2023-03-24T05:43:44.338Z,3.67
2023-03-24T05:46:12.283Z,3.42
2023-03-24T05:48:38.995Z,3.70
2023-03-24T05:51:05.990Z,4.15
2023-03-24T05:53:32.600Z,4.40
2023-03-24T05:55:59.048Z,3.75
2023-03-24T05:58:25.821Z,3.90
2023-03-24T06:00:52.314Z,3.70
2023-03-24T06:03:18.899Z,5.10
2023-03-24T06:05:46.117Z,4.00
2023-03-24T06:08:13.290Z,3.47
2023-03-24T06:10:41.035Z,4.07
2023-03-24T06:13:09.318Z,3.80
2023-03-24T06:15:36.531Z,3.63
2023-03-24T06:18:05.487Z,4.10
2023-03-24T06:20:33.321Z,3.47
2023-03-24T06:23:00.042Z,3.55
2023-03-24T06:25:28.913Z,3.45
2023-03-24T06:27:56.405Z,3.72
2023-03-24T06:30:22.876Z,3.63
2023-03-24T06:32:50.355Z,3.10
2023-03-24T06:35:17.706Z,2.72
2023-03-24T06:37:44.906Z,2.92
2023-03-24T06:40:15.267Z,2.70
2023-03-24T06:42:42.044Z,2.90
2023-03-24T06:45:09.890Z,2.60
2023-03-24T06:47:36.583Z,2.63
2023-03-24T06:50:03.485Z,2.20
2023-03-24T06:52:34.172Z,2.40
2023-03-24T06:55:02.227Z,2.13
2023-03-24T06:57:29.032Z,2.20
2023-03-24T06:59:55.905Z,2.47
2023-03-24T07:02:22.994Z,2.10
2023-03-24T07:04:52.475Z,1.73
2023-03-24T07:08:06.013Z,1.73
2023-03-24T07:10:06.529Z,2.00
2023-03-24T07:12:33.016Z,2.05
2023-03-24T07:14:59.949Z,1.80
2023-03-24T07:17:26.352Z,1.52
2023-03-24T07:19:53.059Z,1.50
2023-03-24T07:22:19.644Z,1.70
2023-03-24T07:24:46.139Z,1.60
2023-03-24T07:27:12.576Z,1.75
2023-03-24T07:29:39.055Z,1.40
2023-03-24T07:32:08.515Z,1.80
2023-03-24T07:34:39.665Z,1.80
2023-03-24T07:37:06.689Z,1.50
2023-03-24T07:39:33.239Z,1.58
2023-03-24T07:41:59.658Z,1.50
2023-03-24T07:44:26.157Z,1.40
2023-03-24T07:46:52.642Z,1.48
2023-03-24T07:49:20.101Z,1.55
2023-03-24T07:51:46.845Z,1.30
2023-03-24T07:54:13.365Z,1.48
2023-03-24T07:56:39.929Z,1.25
2023-03-24T07:59:06.581Z,1.63
2023-03-24T08:01:37.834Z,1.90
2023-03-24T08:04:06.649Z,1.60
2023-03-24T08:06:35.090Z,1.88
2023-03-24T08:09:02.018Z,1.50
2023-03-24T08:11:28.533Z,1.30
2023-03-24T08:13:55.038Z,1.33
2023-03-24T08:16:21.818Z,1.67
2023-03-24T08:18:48.795Z,1.40
2023-03-24T08:21:15.481Z,1.85
2023-03-24T08:23:42.089Z,1.70
2023-03-24T08:26:10.790Z,1.48
2023-03-24T08:28:45.790Z,1.50
2023-03-24T08:31:13.018Z,1.50
2023-03-24T08:33:41.685Z,1.50
2023-03-24T08:36:08.433Z,1.40
2023-03-24T08:38:39.032Z,1.58
2023-03-24T08:41:07.051Z,1.50
2023-03-24T08:43:35.561Z,1.50
2023-03-24T08:46:03.176Z,1.88
2023-03-24T08:48:30.642Z,3.30
2023-03-24T08:50:57.405Z,2.80
2023-03-24T08:53:24.502Z,2.05
2023-03-24T08:55:52.986Z,1.63
2023-03-24T08:58:21.034Z,1.58
2023-03-24T09:00:48.817Z,1.50
2023-03-24T09:03:22.249Z,1.52
2023-03-24T09:05:49.732Z,1.77
2023-03-24T09:08:18.377Z,1.88
2023-03-24T09:10:50.293Z,1.42
2023-03-24T09:13:19.504Z,2.17
2023-03-24T09:15:52.371Z,1.42
2023-03-24T09:18:20.462Z,1.50
2023-03-24T09:20:48.929Z,1.30
2023-03-24T09:23:17.170Z,1.60
2023-03-24T09:25:43.810Z,1.80
2023-03-24T09:28:10.510Z,1.50
2023-03-24T09:30:37.460Z,2.25
2023-03-24T09:33:04.069Z,1.33
2023-03-24T09:35:34.146Z,1.08
2023-03-24T09:38:02.659Z,1.10
2023-03-24T09:40:35.571Z,1.23
2023-03-24T09:43:18.232Z,2.45
2023-03-24T09:45:50.919Z,1.60
2023-03-24T09:48:54.427Z,1.00
2023-03-24T09:51:24.829Z,1.27
2023-03-24T09:54:00.427Z,1.02
2023-03-24T09:56:29.823Z,0.90
2023-03-24T09:59:18.561Z,1.00
2023-03-24T10:01:45.412Z,0.98
2023-03-24T10:04:18.191Z,1.00
2023-03-24T10:06:45.420Z,1.37
2023-03-24T10:09:27.237Z,0.88
2023-03-24T10:12:13.267Z,1.00
2023-03-24T10:14:57.318Z,1.38
2023-03-24T10:17:29.122Z,0.93
2023-03-24T10:20:03.550Z,0.90
2023-03-24T10:22:54.532Z,0.90
2023-03-24T10:25:26.901Z,0.90
2023-03-24T10:28:02.816Z,1.30
2023-03-24T10:30:33.318Z,1.13
2023-03-24T10:32:59.817Z,1.20
2023-03-24T10:35:39.415Z,1.10
2023-03-24T10:38:18.278Z,0.90
2023-03-24T10:40:47.729Z,1.17
2023-03-24T10:43:17.250Z,1.23
2023-03-24T10:45:47.493Z,1.10
2023-03-24T10:48:15.593Z,1.00
2023-03-24T10:50:45.298Z,1.00
2023-03-24T10:53:21.005Z,1.08
2023-03-24T10:55:51.110Z,1.45
2023-03-24T10:58:28.539Z,1.02
2023-03-24T11:00:59.281Z,1.10
2023-03-24T11:03:33.849Z,2.05
2023-03-24T11:06:03.357Z,1.10
2023-03-24T11:08:36.903Z,1.25
2023-03-24T11:11:32.267Z,1.10
2023-03-24T11:14:03.843Z,1.15
2023-03-24T11:16:39.374Z,1.35
2023-03-24T11:19:18.783Z,1.50
2023-03-24T11:21:48.913Z,1.70
2023-03-24T11:24:18.236Z,1.10
2023-03-24T11:26:58.744Z,1.08
2023-03-24T11:29:28.052Z,1.95
2023-03-24T11:31:58.485Z,1.20
2023-03-24T11:34:34.306Z,1.92
2023-03-24T11:37:04.635Z,1.20
2023-03-24T11:39:34.185Z,1.60
2023-03-24T11:42:14.129Z,1.48
2023-03-24T11:44:49.505Z,1.60
2023-03-24T11:47:29.281Z,2.42
2023-03-24T11:50:11.069Z,1.52
2023-03-24T11:52:53.689Z,1.58
2023-03-24T11:55:49.807Z,1.30
2023-03-24T11:58:19.391Z,1.25
2023-03-24T12:00:57.216Z,1.30
2023-03-24T12:03:46.774Z,1.15
2023-03-24T12:06:33.185Z,1.10
2023-03-24T12:09:18.531Z,1.30
2023-03-24T12:12:20.703Z,1.35
2023-03-24T12:15:14.379Z,1.30
2023-03-24T12:18:10.499Z,1.17
2023-03-24T12:21:04.699Z,1.10
2023-03-24T12:23:46.479Z,2.00
2023-03-24T12:29:08.344Z,1.08
2023-03-24T12:31:47.314Z,1.52
2023-03-24T12:34:33.876Z,0.98
2023-03-24T12:37:06.098Z,1.27
2023-03-24T12:39:37.676Z,1.85
2023-03-24T12:42:10.868Z,1.20
2023-03-24T12:44:43.370Z,1.20
2023-03-24T12:47:30.023Z,1.23
2023-03-24T12:49:56.574Z,1.35
2023-03-24T12:52:32.182Z,1.30
2023-03-24T12:55:09.991Z,1.20
2023-03-24T12:58:06.693Z,1.33
2023-03-24T13:00:40.938Z,1.05
2023-03-24T13:03:15.521Z,1.00
2023-03-24T13:05:58.158Z,1.60
2023-03-24T13:08:32.204Z,1.45
2023-03-24T13:11:07.135Z,1.88
2023-03-24T13:13:40.129Z,1.30
2023-03-24T13:16:18.986Z,1.30
2023-03-24T13:18:54.540Z,1.58
2023-03-24T13:21:24.801Z,1.02
2023-03-24T13:24:15.280Z,1.10
2023-03-24T13:27:05.578Z,0.95
2023-03-24T13:29:50.918Z,1.20
2023-03-24T13:32:20.156Z,1.30
2023-03-24T13:35:18.265Z,1.38
2023-03-24T13:37:50.748Z,1.00
2023-03-24T13:40:30.711Z,1.10
2023-03-24T13:43:10.335Z,1.30
2023-03-24T13:45:49.888Z,1.40
2023-03-24T13:48:37.645Z,1.67
2023-03-24T13:51:38.161Z,1.55
2023-03-24T13:54:27.263Z,1.33
2023-03-24T13:57:12.536Z,1.63
2023-03-24T13:59:42.345Z,1.60
2023-03-24T14:02:20.454Z,1.30
2023-03-24T14:04:48.521Z,1.42
2023-03-24T14:07:32.671Z,1.40
2023-03-24T14:10:22.287Z,1.52
2023-03-24T14:12:57.831Z,1.60
2023-03-24T14:15:40.353Z,1.65
2023-03-24T14:18:26.024Z,1.13
2023-03-24T14:21:02.634Z,1.30
2023-03-24T14:23:39.606Z,1.50
2023-03-24T14:26:12.063Z,1.80
2023-03-24T14:28:52.506Z,1.90
2023-03-24T14:31:34.571Z,1.40
2023-03-24T14:34:25.376Z,1.83
2023-03-24T14:37:00.550Z,1.75
2023-03-24T14:39:38.898Z,2.22
2023-03-24T14:42:31.633Z,1.38
2023-03-24T14:45:24.186Z,1.55
2023-03-24T14:47:59.256Z,2.28
2023-03-24T14:50:27.523Z,1.33
2023-03-24T14:52:58.677Z,1.77
2023-03-24T14:55:26.474Z,1.50
2023-03-24T14:57:56.977Z,1.60
2023-03-24T15:00:58.014Z,2.15
2023-03-24T15:03:42.400Z,2.65
2023-03-24T15:06:17.062Z,1.75
2023-03-24T15:08:54.578Z,1.65
2023-03-24T15:11:33.688Z,1.95
2023-03-24T15:14:01.816Z,1.80
2023-03-24T15:16:30.724Z,1.50
2023-03-24T15:19:15.727Z,1.42
2023-03-24T15:21:50.744Z,1.30
2023-03-24T15:24:23.540Z,1.83
2023-03-24T15:26:53.431Z,1.50
2023-03-24T15:29:19.965Z,1.60
2023-03-24T15:31:48.459Z,1.95
2023-03-24T15:34:26.334Z,1.58
2023-03-24T15:36:57.819Z,1.42
2023-03-24T15:39:37.057Z,2.03
2023-03-24T15:42:17.497Z,1.58
2023-03-24T15:44:45.241Z,1.52
2023-03-24T15:47:24.888Z,1.50
2023-03-24T15:50:05.537Z,2.08
2023-03-24T15:52:37.677Z,1.90
2023-03-24T15:55:21.411Z,1.42
2023-03-24T15:57:47.901Z,1.55
2023-03-24T16:00:19.085Z,1.10
2023-03-24T16:02:48.303Z,1.30
2023-03-24T16:05:26.010Z,1.50
2023-03-24T16:07:56.704Z,1.42
2023-03-24T16:10:33.427Z,1.38
2023-03-24T16:13:11.789Z,1.33
2023-03-24T16:15:38.459Z,1.73
2023-03-24T16:18:06.405Z,1.15
2023-03-24T16:20:33.080Z,1.85
2023-03-24T16:22:59.763Z,1.77
2023-03-24T16:25:26.245Z,1.63
2023-03-24T16:27:52.737Z,1.38
2023-03-24T16:30:25.287Z,1.25
2023-03-24T16:32:51.763Z,1.38
2023-03-24T16:35:18.489Z,1.65
2023-03-24T16:37:45.189Z,1.48
2023-03-24T16:40:45.990Z,1.67
2023-03-24T16:43:12.509Z,1.23
2023-03-24T16:45:39.046Z,1.33
2023-03-24T16:48:05.709Z,1.23
2023-03-24T16:50:36.697Z,1.60
2023-03-24T16:53:04.782Z,1.45
2023-03-24T16:55:35.564Z,1.38
2023-03-24T16:58:02.792Z,1.35
2023-03-24T17:00:30.041Z,1.50
2023-03-24T17:02:59.808Z,1.60
2023-03-24T17:05:34.745Z,1.10
2023-03-24T17:08:03.365Z,1.73
2023-03-24T17:10:30.412Z,3.38
2023-03-24T17:12:57.588Z,4.00
2023-03-24T17:15:27.064Z,2.88
2023-03-24T17:17:54.293Z,1.80
2023-03-24T17:20:22.611Z,1.80
2023-03-24T17:22:54.314Z,1.50
2023-03-24T17:25:22.820Z,1.70
2023-03-24T17:27:50.925Z,2.17
2023-03-24T17:30:20.378Z,2.03
2023-03-24T17:32:47.124Z,1.90
2023-03-24T17:35:17.467Z,1.65
2023-03-24T17:37:44.050Z,2.70
2023-03-24T17:40:12.477Z,1.58
2023-03-24T17:42:41.143Z,1.45
2023-03-24T17:45:12.617Z,2.40
2023-03-24T17:47:40.487Z,1.55
2023-03-24T17:50:11.275Z,1.48
2023-03-24T17:52:47.661Z,1.63
2023-03-24T17:55:16.305Z,1.70
2023-03-24T17:57:42.904Z,2.30
2023-03-24T18:00:12.003Z,1.95
2023-03-24T18:02:40.002Z,2.28
2023-03-24T18:05:07.752Z,2.40
2023-03-24T18:07:34.591Z,2.63
2023-03-24T18:10:01.185Z,2.63
2023-03-24T18:12:28.392Z,2.28
2023-03-24T18:14:54.802Z,2.28
2023-03-24T18:17:21.689Z,3.60
2023-03-24T18:19:48.440Z,3.53
2023-03-24T18:22:15.021Z,4.10
2023-03-24T18:24:41.453Z,10.43
2023-03-24T18:27:09.900Z,13.02
2023-03-24T18:29:37.558Z,4.68
2023-03-24T18:32:06.247Z,2.58
2023-03-24T18:34:33.993Z,2.30
2023-03-24T18:37:00.415Z,1.90
2023-03-24T18:39:27.004Z,1.35
2023-03-24T18:41:53.882Z,2.75
2023-03-24T18:44:21.165Z,2.28
2023-03-24T18:46:47.669Z,2.00
2023-03-24T18:49:15.476Z,2.08
2023-03-24T18:51:43.442Z,2.92
2023-03-24T18:54:11.899Z,2.63
2023-03-24T18:56:38.480Z,3.67
2023-03-24T18:59:05.768Z,3.28
2023-03-24T19:01:33.059Z,3.42
2023-03-24T19:03:59.748Z,7.05
2023-03-24T19:06:30.886Z,5.82
2023-03-24T19:08:59.557Z,3.38
2023-03-24T19:11:26.722Z,3.55
2023-03-24T19:13:56.876Z,2.90
2023-03-24T19:16:23.398Z,3.25
2023-03-24T19:18:50.913Z,2.78
2023-03-24T19:21:18.467Z,3.05
2023-03-24T19:23:52.448Z,3.92
2023-03-24T19:26:24.580Z,4.05
2023-03-24T19:28:51.265Z,3.70
2023-03-24T19:31:19.634Z,3.40
2023-03-24T19:33:46.870Z,2.33
2023-03-24T19:36:13.839Z,3.22
2023-03-24T19:38:40.324Z,2.20
2023-03-24T19:41:10.431Z,3.22
2023-03-24T19:43:37.346Z,4.72
2023-03-24T19:46:04.490Z,3.65
2023-03-24T19:48:31.134Z,2.83
2023-03-24T19:50:57.717Z,2.20
2023-03-24T19:53:24.783Z,1.58
2023-03-24T19:55:51.775Z,2.85
2023-03-24T19:58:18.430Z,1.80
2023-03-24T20:00:45.049Z,3.20
2023-03-24T20:03:11.581Z,2.15
2023-03-24T20:05:38.604Z,2.10
2023-03-24T20:08:07.838Z,2.25
2023-03-24T20:10:36.582Z,2.50
2023-03-24T20:13:09.991Z,3.10
2023-03-24T20:15:36.798Z,1.73
2023-03-24T20:18:04.056Z,1.60
2023-03-24T20:20:30.718Z,1.60
2023-03-24T20:22:57.527Z,1.98
2023-03-24T20:25:24.247Z,1.98
2023-03-24T20:27:50.868Z,1.35
2023-03-24T20:30:18.829Z,1.60
2023-03-24T20:32:46.957Z,1.63
2023-03-24T20:35:13.516Z,2.00
2023-03-24T20:37:40.003Z,1.95
2023-03-24T20:40:09.711Z,1.45
2023-03-24T20:42:37.202Z,1.67
2023-03-24T20:45:06.798Z,1.08
2023-03-24T20:47:33.615Z,1.48
2023-03-24T20:50:01.314Z,1.15
2023-03-24T20:52:28.611Z,1.67
2023-03-24T20:54:55.111Z,1.52
2023-03-24T20:57:21.642Z,1.52
2023-03-24T20:59:49.448Z,1.42
2023-03-24T21:02:16.243Z,1.20
2023-03-24T21:04:42.940Z,1.30
2023-03-24T21:07:09.600Z,1.48
2023-03-24T21:09:36.300Z,1.25
2023-03-24T21:12:03.346Z,1.55
2023-03-24T21:14:30.302Z,1.02
2023-03-24T21:16:56.869Z,1.73
2023-03-24T21:19:24.061Z,1.15
2023-03-24T21:21:50.773Z,1.10
2023-03-24T21:24:18.042Z,0.90
2023-03-24T21:26:57.381Z,0.95
2023-03-24T21:29:24.928Z,0.90
2023-03-24T21:31:51.575Z,1.10
2023-03-24T21:34:18.314Z,0.88
2023-03-24T21:36:46.079Z,0.70
2023-03-24T21:39:12.640Z,2.88
2023-03-24T21:41:39.982Z,0.77
2023-03-24T21:44:09.392Z,0.80
2023-03-24T21:46:37.174Z,0.73
2023-03-24T21:49:05.082Z,0.60
2023-03-24T21:51:34.655Z,0.63
2023-03-24T21:54:03.426Z,0.50
2023-03-24T21:56:34.603Z,0.68
2023-03-24T21:59:01.540Z,0.65
2023-03-24T22:01:28.730Z,0.60
2023-03-24T22:03:55.878Z,0.35
2023-03-24T22:06:27.936Z,0.60
2023-03-24T22:08:58.898Z,1.33
2023-03-24T22:11:25.862Z,0.50
2023-03-24T22:13:52.731Z,0.63
2023-03-24T22:16:19.218Z,0.90
2023-03-24T22:18:47.312Z,0.70
2023-03-24T22:21:14.091Z,0.98
2023-03-24T22:23:42.536Z,0.75
2023-03-24T22:26:12.399Z,0.80
2023-03-24T22:28:39.743Z,0.75
2023-03-24T22:31:12.208Z,0.75
2023-03-24T22:33:39.093Z,0.88
2023-03-24T22:36:06.954Z,0.70
2023-03-24T22:38:34.516Z,0.80
2023-03-24T22:41:07.404Z,0.70
2023-03-24T22:43:35.800Z,0.73
2023-03-24T22:46:03.487Z,1.05
2023-03-24T22:48:30.332Z,1.67
2023-03-24T22:50:56.965Z,0.75
2023-03-24T22:53:23.630Z,0.68
2023-03-24T22:55:50.366Z,1.15
2023-03-24T22:58:17.289Z,1.08
2023-03-24T23:00:47.353Z,0.77
2023-03-24T23:03:16.658Z,1.30
2023-03-24T23:05:48.998Z,1.67
2023-03-24T23:08:15.809Z,1.08
2023-03-24T23:10:44.054Z,0.63
2023-03-24T23:13:10.909Z,1.08
2023-03-24T23:15:42.637Z,1.55
2023-03-24T23:18:12.688Z,0.98
2023-03-24T23:20:40.762Z,1.02
2023-03-24T23:23:09.694Z,0.70
2023-03-24T23:25:43.200Z,0.90
2023-03-24T23:28:11.073Z,0.88
2023-03-24T23:30:40.128Z,0.77
2023-03-24T23:33:06.707Z,0.80
2023-03-24T23:35:33.386Z,0.70
2023-03-24T23:37:59.840Z,0.80
2023-03-24T23:40:26.828Z,0.80
2023-03-24T23:42:53.418Z,0.60
2023-03-24T23:45:24.303Z,0.95
2023-03-24T23:47:53.230Z,0.70
2023-03-24T23:50:20.977Z,0.70
2023-03-24T23:52:48.142Z,0.63
2023-03-24T23:55:16.320Z,0.55
2023-03-24T23:57:43.912Z,0.70
